Time;durP1;ratioP1;P1;durP2;ratioP2;P2;SDS_P1;SDS_P2;PMS_P1;PMS_P2;Temp;Humidity;BMP_temperature;BMP_pressure;BME280_temperature;BME280_humidity;BME280_pressure;Samples;Min_cycle;Max_cycle;Signal;HPM_P1;HPM_P2
2021/05/21 00:00:43;;;;;;;4.38;1.38;;;;;;;10.09;71.05;98871.13;5085318;28;20067;-80
2021/05/21 00:03:11;;;;;;;2.00;1.40;;;;;;;10.13;70.21;98858.00;5084597;28;20059;-80
2021/05/21 00:05:37;;;;;;;2.78;1.40;;;;;;;10.24;69.86;98881.16;5087196;28;20052;-80
2021/05/21 00:08:04;;;;;;;3.80;1.20;;;;;;;10.09;70.09;98867.59;5077409;28;20044;-80
2021/05/21 00:10:30;;;;;;;1.52;1.20;;;;;;;10.11;70.54;98881.81;5091436;28;20052;-80
2021/05/21 00:12:56;;;;;;;3.35;1.50;;;;;;;9.95;70.29;98873.84;5091100;28;20044;-80
2021/05/21 00:15:23;;;;;;;5.88;1.42;;;;;;;10.03;70.33;98874.59;5087166;28;20048;-80
2021/05/21 00:17:49;;;;;;;2.17;1.42;;;;;;;10.08;70.67;98857.75;5090227;28;20098;-80
2021/05/21 00:20:17;;;;;;;2.15;1.00;;;;;;;9.98;71.05;98857.19;5080717;28;20040;-80
2021/05/21 00:22:43;;;;;;;3.35;1.23;;;;;;;10.04;70.80;98862.72;5080365;28;20056;-80
2021/05/21 00:25:10;;;;;;;5.10;0.90;;;;;;;10.12;70.36;98860.91;5083695;28;20492;-80
2021/05/21 00:27:37;;;;;;;1.77;1.15;;;;;;;10.09;70.19;98870.28;5080363;28;20059;-80
2021/05/21 00:30:05;;;;;;;1.92;1.27;;;;;;;9.98;70.22;98844.47;5081409;28;20048;-80
2021/05/21 00:32:32;;;;;;;1.25;0.90;;;;;;;10.09;69.95;98849.41;5088806;28;20066;-80
2021/05/21 00:34:58;;;;;;;1.10;1.00;;;;;;;10.10;70.14;98842.94;5082046;28;20048;-80
2021/05/21 00:37:25;;;;;;;3.22;1.27;;;;;;;10.25;69.39;98844.78;5089406;28;20411;-80
2021/05/21 00:39:52;;;;;;;1.48;1.00;;;;;;;10.35;69.03;98855.38;5084647;28;20056;-80
2021/05/21 00:42:20;;;;;;;2.22;1.20;;;;;;;10.23;70.13;98852.28;5090395;28;20040;-80
2021/05/21 00:45:13;;;;;;;1.77;1.30;;;;;;;10.13;69.96;98840.88;5090139;28;20083;-80
2021/05/21 00:47:54;;;;;;;2.25;1.13;;;;;;;10.11;70.55;98832.91;5073900;28;20057;-79
2021/05/21 00:50:43;;;;;;;1.77;1.20;;;;;;;10.16;70.88;98845.91;5084415;28;20052;-80
2021/05/21 00:53:12;;;;;;;4.05;1.20;;;;;;;10.12;71.61;98829.19;5072561;28;20052;-80
2021/05/21 00:55:43;;;;;;;2.55;1.30;;;;;;;9.94;71.79;98813.28;5081362;28;20476;-80
2021/05/21 00:58:10;;;;;;;2.08;1.00;;;;;;;9.88;72.73;98786.88;5081496;28;20048;-80
2021/05/21 01:00:36;;;;;;;3.80;1.23;;;;;;;9.81;73.43;98785.97;5095408;28;20040;-80
2021/05/21 01:03:02;;;;;;;1.17;1.00;;;;;;;9.86;72.70;98787.09;5091809;28;20052;-80
2021/05/21 01:05:29;;;;;;;1.88;1.10;;;;;;;9.94;72.09;98804.31;5096310;28;20055;-80
2021/05/21 01:07:58;;;;;;;4.78;1.10;;;;;;;9.91;72.63;98813.66;5084314;28;20467;-80
2021/05/21 01:10:31;;;;;;;1.05;0.98;;;;;;;9.88;73.30;98812.16;5090369;28;20127;-80
2021/05/21 01:12:57;;;;;;;3.50;1.02;;;;;;;9.85;73.60;98800.84;5086001;28;20051;-80
2021/05/21 01:15:34;;;;;;;1.25;1.15;;;;;;;9.72;73.29;98805.03;5096209;28;20056;-79
2021/05/21 01:18:04;;;;;;;0.85;0.85;;;;;;;9.56;74.32;98795.25;5087073;28;20555;-80
2021/05/21 01:20:39;;;;;;;1.63;1.40;;;;;;;9.61;74.60;98802.00;5095645;28;20071;-80
2021/05/21 01:23:09;;;;;;;3.63;1.27;;;;;;;9.72;74.44;98796.06;5091251;28;20074;-80
2021/05/21 01:25:52;;;;;;;1.98;1.27;;;;;;;9.53;75.29;98784.75;5078402;28;20049;-80
2021/05/21 01:28:26;;;;;;;1.83;1.30;;;;;;;9.55;74.75;98781.88;5074664;28;20045;-80
2021/05/21 01:31:05;;;;;;;1.98;1.10;;;;;;;9.63;75.39;98781.75;5074918;28;20124;-80
2021/05/21 01:33:36;;;;;;;1.70;1.20;;;;;;;9.42;75.15;98765.41;5075285;28;20090;-80
2021/05/21 01:36:04;;;;;;;2.72;1.15;;;;;;;9.57;74.81;98763.50;5089392;28;20154;-80
2021/05/21 01:38:33;;;;;;;3.20;1.15;;;;;;;9.50;74.35;98747.16;5094172;28;20051;-80
2021/05/21 01:41:00;;;;;;;1.00;0.90;;;;;;;9.50;74.55;98778.84;5079597;28;20051;-80
2021/05/21 01:43:26;;;;;;;0.95;0.80;;;;;;;9.48;73.86;98751.91;5093844;28;20518;-80
2021/05/21 01:45:53;;;;;;;2.38;1.20;;;;;;;9.53;74.26;98756.81;5092623;28;20113;-80
2021/05/21 01:48:19;;;;;;;1.58;1.17;;;;;;;9.61;74.18;98761.28;5086044;28;20518;-80
2021/05/21 01:50:45;;;;;;;0.93;0.88;;;;;;;9.59;74.78;98776.88;5074497;28;20056;-80
2021/05/21 01:53:20;;;;;;;2.15;1.20;;;;;;;9.46;74.42;98759.41;5082404;28;20044;-79
2021/05/21 01:56:09;;;;;;;1.52;1.05;;;;;;;9.57;73.46;98761.66;5081611;28;20048;-79
2021/05/21 01:58:42;;;;;;;1.45;1.13;;;;;;;9.59;72.29;98755.19;5088450;28;20052;-80
2021/05/21 02:01:09;;;;;;;2.25;0.90;;;;;;;9.46;72.57;98732.28;5089914;28;20067;-79
2021/05/21 02:03:35;;;;;;;1.35;1.10;;;;;;;9.50;73.15;98741.72;5079944;28;20052;-80
2021/05/21 02:06:12;;;;;;;2.70;1.27;;;;;;;9.38;73.69;98743.25;5074631;28;20480;-80
2021/05/21 02:11:50;;;;;;;1.55;1.17;;;;;;;9.39;72.83;98715.91;5073591;28;20147;-80
2021/05/21 02:14:26;;;;;;;2.45;1.38;;;;;;;9.57;71.51;98720.94;5081642;28;20537;-79
2021/05/21 02:19:58;;;;;;;1.88;1.27;;;;;;;9.49;72.76;98714.78;5092186;28;20052;-79
2021/05/21 02:22:41;;;;;;;4.25;1.60;;;;;;;9.43;72.98;98707.41;5085710;28;20052;-79
2021/05/21 02:25:27;;;;;;;2.90;1.10;;;;;;;9.43;73.08;98710.94;5090613;28;20076;-80
2021/05/21 02:28:00;;;;;;;1.98;1.10;;;;;;;9.47;71.99;98709.53;5074714;28;20079;-80
2021/05/21 02:30:29;;;;;;;2.67;1.20;;;;;;;9.35;72.14;98686.63;5092524;28;20634;-80
2021/05/21 02:33:18;;;;;;;3.22;1.48;;;;;;;9.50;72.05;98709.16;5094973;28;20048;-80
2021/05/21 02:35:47;;;;;;;1.63;1.15;;;;;;;9.55;72.24;98706.72;5082561;28;20056;-79
2021/05/21 02:38:15;;;;;;;1.55;1.33;;;;;;;9.45;72.27;98699.91;5078078;28;20101;-80
2021/05/21 02:40:45;;;;;;;1.65;1.25;;;;;;;9.37;72.43;98690.81;5089671;28;20048;-79
2021/05/21 02:43:13;;;;;;;4.80;1.48;;;;;;;9.29;72.57;98682.81;5094529;28;20049;-79
2021/05/21 02:45:39;;;;;;;1.17;1.08;;;;;;;9.37;72.73;98700.84;5079927;28;20049;-79
2021/05/21 02:48:08;;;;;;;2.25;1.73;;;;;;;9.36;73.89;98689.16;5074358;28;20052;-80
2021/05/21 02:50:34;;;;;;;1.52;1.10;;;;;;;9.39;74.11;98699.63;5079557;28;20057;-80
2021/05/21 02:53:01;;;;;;;1.88;1.55;;;;;;;9.19;73.67;98666.81;5074358;28;20040;-80
2021/05/21 02:55:29;;;;;;;1.33;1.17;;;;;;;9.18;73.64;98677.84;5084065;28;20152;-80
2021/05/21 02:57:57;;;;;;;2.13;1.20;;;;;;;9.07;74.04;98665.59;5093672;28;20051;-79
2021/05/21 03:00:26;;;;;;;1.33;1.15;;;;;;;9.26;73.48;98687.75;5084078;28;20091;-79
2021/05/21 03:03:04;;;;;;;4.70;1.30;;;;;;;9.32;73.63;98674.28;5076032;28;20424;-80
2021/05/21 03:05:39;;;;;;;1.55;1.30;;;;;;;9.26;73.36;98660.63;5094261;28;20048;-79
2021/05/21 03:08:07;;;;;;;1.55;1.30;;;;;;;9.19;73.40;98644.28;5081375;28;20045;-79
2021/05/21 03:10:34;;;;;;;2.67;1.42;;;;;;;9.20;73.65;98652.22;5073778;28;20044;-79
2021/05/21 03:13:14;;;;;;;3.22;1.10;;;;;;;9.23;73.53;98648.31;5086254;28;20455;-79
2021/05/21 03:15:45;;;;;;;;;;;;;;;9.41;72.39;98656.03;5094603;28;20051;-79
2021/05/21 03:18:23;;;;;;;2.75;1.40;;;;;;;9.42;72.21;98640.59;5093500;28;19920;-79
2021/05/21 03:20:56;;;;;;;5.60;1.50;;;;;;;9.53;72.33;98653.69;5073991;28;20401;-79
2021/05/21 03:23:27;;;;;;;2.22;1.20;;;;;;;9.53;71.45;98642.81;5086192;28;20047;-79
2021/05/21 03:25:58;;;;;;;1.08;1.02;;;;;;;9.53;72.12;98634.69;5078389;28;20139;-79
2021/05/21 03:28:26;;;;;;;1.98;1.20;;;;;;;9.58;71.33;98618.66;5085511;28;20071;-79
2021/05/21 03:30:56;;;;;;;3.10;1.15;;;;;;;9.64;71.36;98620.59;5075099;28;20052;-80
2021/05/21 03:33:30;;;;;;;6.43;1.23;;;;;;;9.68;70.81;98626.47;5085125;28;20101;-80
2021/05/21 03:36:55;;;;;;;9.30;1.48;;;;;;;9.84;71.47;98631.66;5090000;28;20050;-80
2021/05/21 03:39:23;;;;;;;2.30;1.20;;;;;;;9.85;70.21;98625.19;5059818;28;20499;-80
2021/05/21 03:45:27;;;;;;;2.65;1.23;;;;;;;9.81;70.38;98610.31;4905163;28;20057;-79
2021/05/21 03:47:54;;;;;;;3.10;1.02;;;;;;;9.95;69.86;98622.19;5083049;28;20060;-79
2021/05/21 03:50:21;;;;;;;3.00;1.20;;;;;;;9.79;70.63;98614.28;5092771;28;20097;-79
2021/05/21 03:52:49;;;;;;;0.82;0.82;;;;;;;9.80;70.99;98605.09;5079654;28;20176;-78
2021/05/21 03:55:16;;;;;;;2.65;1.20;;;;;;;9.92;70.16;98627.97;5092620;28;20113;-79
2021/05/21 03:57:43;;;;;;;1.35;1.02;;;;;;;9.80;70.83;98607.81;5074371;28;20509;-79
2021/05/21 04:00:16;;;;;;;1.38;1.00;;;;;;;9.88;71.19;98622.09;5091021;28;20048;-80
2021/05/21 04:02:44;;;;;;;1.58;0.90;;;;;;;9.71;71.92;98612.50;5090842;28;20052;-79
2021/05/21 04:05:14;;;;;;;3.13;1.25;;;;;;;9.73;71.58;98615.91;5077673;28;20105;-80
2021/05/21 04:10:43;;;;;;;2.00;0.98;;;;;;;9.77;71.62;98609.06;5066095;28;20132;-82
2021/05/21 04:13:10;;;;;;;2.20;0.93;;;;;;;9.75;70.76;98605.69;5078207;28;20079;-82
2021/05/21 04:15:38;;;;;;;1.48;0.88;;;;;;;9.92;71.03;98614.41;5087313;28;20044;-83
2021/05/21 04:18:06;;;;;;;3.38;0.98;;;;;;;9.91;70.40;98600.00;5088902;28;20052;-82
2021/05/21 04:20:33;;;;;;;1.10;1.00;;;;;;;9.98;70.06;98593.78;5082144;28;20052;-82
2021/05/21 04:23:01;;;;;;;2.88;1.00;;;;;;;9.99;70.15;98595.47;5073048;28;20049;-82
2021/05/21 04:25:28;;;;;;;0.82;0.82;;;;;;;9.96;70.39;98585.00;5092521;28;20036;-82
2021/05/21 04:27:54;;;;;;;1.65;1.10;;;;;;;10.13;69.47;98599.13;5093538;28;20048;-82
2021/05/21 04:30:22;;;;;;;1.95;0.90;;;;;;;10.15;69.58;98586.22;5073171;28;20470;-82
2021/05/21 04:32:50;;;;;;;3.90;1.05;;;;;;;10.31;69.83;98593.22;5092799;28;20044;-82
2021/05/21 04:35:17;;;;;;;1.08;0.73;;;;;;;10.30;68.83;98586.09;5094407;28;20047;-82
2021/05/21 04:37:43;;;;;;;4.95;1.00;;;;;;;10.35;69.00;98587.22;5088731;28;20044;-82
2021/05/21 04:40:13;;;;;;;2.50;1.00;;;;;;;10.39;69.24;98574.09;5096940;28;20044;-81
2021/05/21 04:42:39;;;;;;;1.80;1.00;;;;;;;10.47;69.19;98562.22;5092478;28;20079;-82
2021/05/21 04:45:17;;;;;;;2.17;1.00;;;;;;;10.51;68.22;98577.09;5091430;28;20040;-82
2021/05/21 04:47:57;;;;;;;4.00;1.10;;;;;;;10.67;69.34;98576.78;5087305;28;20056;-82
2021/05/21 04:50:39;;;;;;;2.33;0.80;;;;;;;10.70;69.47;98561.94;5096524;28;20052;-81
2021/05/21 04:53:05;;;;;;;4.22;1.00;;;;;;;10.80;68.04;98576.84;5086644;28;20558;-82
2021/05/21 04:55:33;;;;;;;1.85;0.90;;;;;;;10.95;68.39;98594.94;5086288;28;20495;-81
2021/05/21 04:58:01;;;;;;;0.70;0.70;;;;;;;11.00;68.27;98589.72;5092025;28;20045;-82
2021/05/21 05:00:30;;;;;;;3.75;1.25;;;;;;;11.01;68.61;98575.06;5076130;28;20052;-82
2021/05/21 05:02:56;;;;;;;2.17;0.70;;;;;;;11.01;68.23;98561.47;5086854;28;20407;-82
2021/05/21 05:05:22;;;;;;;1.25;0.95;;;;;;;11.11;68.96;98570.09;5083880;28;20051;-81
2021/05/21 05:07:49;;;;;;;5.97;2.33;;;;;;;11.20;67.79;98572.63;5089408;28;20052;-82
2021/05/21 05:10:16;;;;;;;2.25;1.10;;;;;;;11.17;67.98;98552.13;5085450;28;20063;-82
2021/05/21 05:12:42;;;;;;;1.77;1.08;;;;;;;11.18;66.46;98552.97;5083777;28;20044;-81
2021/05/21 05:15:09;;;;;;;4.88;0.98;;;;;;;11.11;66.85;98552.94;5095261;28;20063;-81
2021/05/21 05:17:37;;;;;;;3.38;0.88;;;;;;;11.25;66.50;98545.66;5079626;28;20048;-81
2021/05/21 05:20:04;;;;;;;2.22;1.00;;;;;;;11.30;66.82;98551.31;5086721;28;20040;-81
2021/05/21 05:22:31;;;;;;;2.25;0.80;;;;;;;11.35;66.90;98537.97;5075909;28;20052;-81
2021/05/21 05:24:59;;;;;;;2.00;1.23;;;;;;;11.39;66.17;98552.00;5086841;28;20094;-82
2021/05/21 05:27:25;;;;;;;1.42;1.10;;;;;;;11.45;66.73;98543.81;5058341;28;20106;-81
2021/05/21 05:29:52;;;;;;;1.00;0.90;;;;;;;11.55;67.02;98534.41;5088477;28;20097;-81
2021/05/21 05:32:18;;;;;;;2.80;0.80;;;;;;;11.65;66.57;98532.13;5079334;28;20061;-82
2021/05/21 05:34:45;;;;;;;2.00;0.80;;;;;;;11.63;66.28;98507.00;5092962;28;20495;-82
2021/05/21 05:37:11;;;;;;;1.38;0.82;;;;;;;11.72;65.80;98518.53;5081041;28;20119;-82
2021/05/21 05:39:37;;;;;;;3.83;1.40;;;;;;;11.66;66.40;98515.59;5088109;28;20059;-82
2021/05/21 05:42:05;;;;;;;5.63;1.40;;;;;;;11.76;65.66;98523.38;5095161;28;20056;-82
2021/05/21 05:44:31;;;;;;;1.90;1.45;;;;;;;11.72;65.69;98510.38;5089421;28;20086;-81
2021/05/21 05:46:57;;;;;;;2.83;1.65;;;;;;;11.82;65.55;98508.09;5075750;28;20074;-81
2021/05/21 05:49:24;;;;;;;1.60;1.38;;;;;;;11.81;66.28;98507.22;5080664;28;20523;-82
2021/05/21 05:51:50;;;;;;;2.35;2.13;;;;;;;12.00;64.43;98521.09;5079425;28;20041;-82
2021/05/21 05:54:16;;;;;;;1.60;1.05;;;;;;;12.00;64.67;98496.59;5060538;28;20040;-81
2021/05/21 05:56:42;;;;;;;2.72;1.00;;;;;;;12.08;65.32;98498.25;5078251;28;20485;-82
2021/05/21 05:59:10;;;;;;;1.10;0.95;;;;;;;12.24;65.15;98503.28;5076869;28;20500;-82
2021/05/21 06:01:36;;;;;;;1.60;0.88;;;;;;;12.25;64.13;98502.19;5093167;28;20552;-82
2021/05/21 06:04:02;;;;;;;3.17;1.10;;;;;;;12.30;63.99;98496.97;5075286;28;20048;-82
2021/05/21 06:06:30;;;;;;;3.75;1.00;;;;;;;12.45;64.12;98504.06;5091645;28;20428;-82
2021/05/21 06:08:56;;;;;;;6.38;0.77;;;;;;;12.57;63.89;98499.66;5094103;28;20044;-82
2021/05/21 06:11:23;;;;;;;2.05;0.75;;;;;;;12.57;63.58;98488.72;5094827;28;20500;-82
2021/05/21 06:13:54;;;;;;;0.70;0.70;;;;;;;12.79;63.64;98491.16;5093420;28;20050;-84
2021/05/21 06:16:21;;;;;;;1.10;0.82;;;;;;;12.84;61.75;98467.66;5084570;28;20047;-81
2021/05/21 06:18:48;;;;;;;1.52;1.00;;;;;;;13.02;61.59;98463.34;5084982;28;20052;-82
2021/05/21 06:21:15;;;;;;;2.15;0.95;;;;;;;13.16;61.63;98475.03;5075273;28;20447;-82
2021/05/21 06:23:44;;;;;;;1.75;0.93;;;;;;;13.14;60.58;98467.06;5074446;28;20060;-82
2021/05/21 06:26:13;;;;;;;0.82;0.80;;;;;;;13.27;61.33;98482.53;5080716;28;20044;-82
2021/05/21 06:28:41;;;;;;;2.17;0.90;;;;;;;13.21;60.52;98453.38;5093922;28;20052;-81
2021/05/21 06:31:09;;;;;;;2.88;1.20;;;;;;;13.30;61.14;98462.16;5094604;28;20089;-83
2021/05/21 06:33:45;;;;;;;3.42;0.80;;;;;;;13.43;59.94;98473.03;5090692;28;20128;-83
2021/05/21 06:36:12;;;;;;;1.92;0.85;;;;;;;13.45;59.24;98465.44;5086145;28;20040;-82
2021/05/21 06:38:46;;;;;;;3.55;0.80;;;;;;;13.57;59.40;98458.22;5092706;28;20749;-81
2021/05/21 06:44:30;;;;;;;1.83;0.80;;;;;;;13.55;59.83;98430.28;5045130;28;20074;-81
2021/05/21 06:47:02;;;;;;;0.70;0.60;;;;;;;13.50;59.77;98440.19;5094238;28;20086;-81
2021/05/21 06:50:00;;;;;;;1.15;0.68;;;;;;;13.62;58.02;98447.47;5088793;28;20044;-81
2021/05/21 07:00:08;;;;;;;1.10;0.85;;;;;;;13.70;58.11;98448.22;5070224;28;20058;-81
2021/05/21 07:03:38;;;;;;;;;;;;;;;;;;;;;
2021/05/21 07:09:20;;;;;;;3.40;0.73;;;;;;;13.67;58.02;98418.63;5059456;28;20116;-79
2021/05/21 07:11:46;;;;;;;3.67;1.00;;;;;;;13.91;57.81;98431.47;5095323;28;20044;-79
2021/05/21 07:14:13;;;;;;;1.85;0.82;;;;;;;13.90;56.90;98405.19;5111944;28;20050;-79
2021/05/21 07:16:40;;;;;;;5.32;0.93;;;;;;;14.01;55.49;98411.81;5103070;28;20142;-79
2021/05/21 07:19:07;;;;;;;4.18;0.93;;;;;;;14.02;56.00;98410.75;5111239;28;20059;-79
2021/05/21 07:21:41;;;;;;;1.73;0.70;;;;;;;14.16;57.16;98406.81;5101884;28;20050;-79
2021/05/21 07:24:10;;;;;;;0.95;0.77;;;;;;;14.21;57.18;98408.03;5093898;28;20139;-80
2021/05/21 07:26:40;;;;;;;3.20;1.00;;;;;;;14.22;56.00;98420.63;5112597;28;20096;-80
2021/05/21 07:36:24;;;;;;;5.53;1.70;;;;;;;14.30;56.84;98420.31;5101371;28;20104;-80
2021/05/21 07:38:52;;;;;;;5.57;1.10;;;;;;;14.26;57.07;98417.22;5112676;28;20051;-80
2021/05/21 07:41:22;;;;;;;1.70;0.93;;;;;;;14.44;55.98;98426.50;5111578;28;20043;-80
2021/05/21 07:43:54;;;;;;;;;;;;;;;14.51;55.83;98428.09;5111821;28;20135;-80
2021/05/21 07:49:29;;;;;;;1.67;0.82;;;;;;;14.32;55.05;98416.31;5094172;28;20438;-80
2021/05/21 07:52:20;;;;;;;3.67;0.73;;;;;;;14.33;55.92;98428.06;5120704;22;20043;-80
2021/05/21 07:54:50;;;;;;;1.35;0.82;;;;;;;14.30;56.12;98432.13;5088324;28;20125;-80
2021/05/21 07:57:24;;;;;;;1.05;0.77;;;;;;;14.29;56.13;98433.19;5090360;28;20499;-80
2021/05/21 07:59:51;;;;;;;1.48;0.93;;;;;;;14.19;56.71;98421.91;5090459;28;20075;-80
2021/05/21 08:02:19;;;;;;;1.73;0.77;;;;;;;14.29;54.95;98437.81;5073445;28;20052;-80
2021/05/21 08:04:45;;;;;;;0.95;0.80;;;;;;;14.20;57.04;98422.78;5060830;28;20049;-80
2021/05/21 08:07:11;;;;;;;0.90;0.70;;;;;;;14.07;57.01;98416.38;5071797;28;20048;-81
2021/05/21 08:09:39;;;;;;;6.00;1.02;;;;;;;14.14;55.88;98428.06;5072093;28;20056;-81
2021/05/21 08:12:09;;;;;;;2.58;0.60;;;;;;;14.14;55.59;98424.50;5066278;28;20059;-80
2021/05/21 08:14:35;;;;;;;;;;;;;;;14.11;55.71;98412.13;5057349;28;20076;-79
2021/05/21 08:17:02;;;;;;;1.85;0.75;;;;;;;14.14;55.59;98416.31;5076630;28;19920;-80
2021/05/21 08:19:28;;;;;;;1.40;0.70;;;;;;;14.18;55.68;98417.50;5074457;28;20045;-80
2021/05/21 08:21:54;;;;;;;1.10;0.50;;;;;;;14.10;55.64;98410.44;5064812;28;20072;-79
2021/05/21 08:24:21;;;;;;;2.88;0.65;;;;;;;14.12;56.07;98394.66;5066620;28;20494;-80
2021/05/21 08:26:47;;;;;;;2.88;0.90;;;;;;;14.10;55.55;98396.78;5074093;28;20044;-80
2021/05/21 08:29:14;;;;;;;2.10;0.77;;;;;;;14.08;56.01;98379.78;5069783;28;20044;-80
2021/05/21 08:31:42;;;;;;;0.95;0.60;;;;;;;14.13;54.93;98381.84;5056969;28;20045;-80
2021/05/21 08:34:08;;;;;;;1.35;0.73;;;;;;;14.21;55.40;98394.34;5064860;28;20483;-80
2021/05/21 08:36:34;;;;;;;1.13;0.90;;;;;;;14.18;54.80;98392.09;5056888;28;20069;-80
2021/05/21 08:39:00;;;;;;;4.93;2.08;;;;;;;14.29;55.02;98394.06;5064079;28;20053;-80
2021/05/21 08:41:28;;;;;;;1.30;0.57;;;;;;;14.33;54.62;98396.13;5075078;28;20045;-80
2021/05/21 08:43:56;;;;;;;2.28;0.98;;;;;;;14.30;55.75;98401.19;5070523;28;20048;-80
2021/05/21 08:46:27;;;;;;;2.20;1.10;;;;;;;14.39;55.86;98401.72;5056842;28;20374;-80
2021/05/21 08:48:57;;;;;;;5.53;0.80;;;;;;;14.40;55.83;98389.72;5056645;28;20132;-79
2021/05/21 08:51:23;;;;;;;2.53;0.60;;;;;;;14.39;55.22;98388.06;5063438;28;20056;-80
2021/05/21 08:53:50;;;;;;;5.28;0.80;;;;;;;14.41;55.36;98392.25;5052319;28;20087;-80
2021/05/21 08:56:16;;;;;;;1.23;0.82;;;;;;;14.24;56.24;98383.81;5069603;28;20404;-80
2021/05/21 08:58:45;;;;;;;2.75;0.80;;;;;;;14.27;56.13;98382.50;5061665;28;20045;-80
2021/05/21 09:01:12;;;;;;;4.57;1.08;;;;;;;14.42;54.90;98402.13;5067904;28;20053;-80
2021/05/21 09:03:39;;;;;;;4.53;0.70;;;;;;;14.24;55.66;98402.97;5067480;28;20045;-80
2021/05/21 09:06:18;;;;;;;1.83;0.90;;;;;;;14.28;55.64;98406.88;5075997;28;20416;-80
2021/05/21 09:08:47;;;;;;;5.15;1.05;;;;;;;14.17;55.52;98396.72;5075410;28;20145;-80
2021/05/21 09:11:32;;;;;;;2.00;1.07;;;;;;;14.21;56.53;98397.94;5068934;28;20052;-80
2021/05/21 09:14:04;;;;;;;1.95;1.13;;;;;;;14.24;55.75;98397.50;5055634;28;20342;-79
2021/05/21 09:16:32;;;;;;;1.75;0.75;;;;;;;14.24;56.56;98407.56;5067497;28;20071;-79
2021/05/21 09:19:18;;;;;;;4.70;1.00;;;;;;;14.20;56.77;98407.19;5055712;28;20076;-80
2021/05/21 09:21:55;;;;;;;5.22;0.57;;;;;;;14.21;55.76;98402.56;5062448;28;20052;-80
2021/05/21 09:24:27;;;;;;;1.77;0.75;;;;;;;14.38;55.95;98416.44;5074277;28;20056;-79
2021/05/21 09:26:55;;;;;;;0.75;0.68;;;;;;;14.39;55.42;98408.06;5057936;28;20052;-79
2021/05/21 09:29:45;;;;;;;1.60;0.82;;;;;;;14.42;55.04;98413.06;5071603;28;20083;-79
2021/05/21 09:32:29;;;;;;;;;;;;;;;14.54;55.37;98399.44;5063309;28;20052;-80
2021/05/21 09:35:02;;;;;;;1.15;0.70;;;;;;;14.48;55.63;98384.81;5075226;28;19924;-79
2021/05/21 09:37:39;;;;;;;2.28;0.77;;;;;;;14.59;55.62;98401.47;5056178;28;20447;-80
2021/05/21 09:40:19;;;;;;;24.75;2.80;;;;;;;14.61;54.52;98391.19;5055338;28;20413;-82
2021/05/21 09:43:00;;;;;;;1.30;0.85;;;;;;;14.62;54.74;98399.16;5067211;28;20067;-80
2021/05/21 09:53:02;;;;;;;;;;;;;;;;;;;;;
2021/05/21 09:56:27;;;;;;;2.25;0.82;;;;;;;14.94;51.91;98418.09;5055144;28;20048;-80
2021/05/21 09:59:22;;;;;;;1.60;0.80;;;;;;;15.26;54.44;98438.94;5057113;28;20052;-80
2021/05/21 10:01:58;;;;;;;3.58;0.90;;;;;;;15.11;52.85;98433.88;5075156;28;20135;-80
2021/05/21 10:21:51;;;;;;;;;;;;;;;;;;;;;
2021/05/21 10:43:29;;;;;;;1.15;0.55;;;;;;;14.87;51.93;98420.09;3349328;26;20050;-82
2021/05/21 10:45:55;;;;;;;1.33;0.47;;;;;;;15.04;52.29;98401.16;5014676;28;20517;-82
2021/05/21 10:48:26;;;;;;;1.73;0.70;;;;;;;15.18;53.37;98413.56;5015821;28;20060;-81
2021/05/21 10:51:07;;;;;;;1.38;0.60;;;;;;;15.04;52.07;98380.06;5014835;28;20050;-80
2021/05/21 10:53:39;;;;;;;1.35;0.52;;;;;;;15.01;52.03;98396.13;5015623;28;20045;-82
2021/05/21 10:56:06;;;;;;;0.57;0.57;;;;;;;15.22;51.32;98420.25;5015087;28;20103;-82
2021/05/21 10:58:38;;;;;;;8.38;1.48;;;;;;;15.21;52.35;98415.81;5014492;28;20107;-81
2021/05/21 11:01:19;;;;;;;1.70;0.60;;;;;;;15.34;51.99;98422.16;5014502;28;20288;-81
2021/05/21 11:04:10;;;;;;;1.75;0.40;;;;;;;15.39;52.71;98428.59;5015262;28;20081;-81
2021/05/21 11:06:49;;;;;;;;;;;;;;;15.31;52.15;98428.97;5009536;28;20076;-82
2021/05/21 11:09:17;;;;;;;0.85;0.50;;;;;;;15.45;52.81;98432.31;5014659;28;19952;-80
2021/05/21 11:11:50;;;;;;;1.30;0.60;;;;;;;15.60;53.09;98429.16;5014321;28;20041;-81
2021/05/21 11:14:31;;;;;;;2.88;0.82;;;;;;;15.69;52.19;98427.72;5014080;28;20068;-82
2021/05/21 11:17:00;;;;;;;1.30;0.50;;;;;;;15.89;51.64;98430.16;5014997;28;20092;-82
2021/05/21 11:19:28;;;;;;;1.67;0.50;;;;;;;15.86;52.35;98400.47;5014434;28;20124;-82
2021/05/21 11:22:12;;;;;;;1.92;0.75;;;;;;;15.96;50.94;98415.47;5015082;28;20076;-82
2021/05/21 11:24:43;;;;;;;2.20;0.60;;;;;;;15.99;52.03;98435.06;5014026;28;20050;-81
2021/05/21 11:27:12;;;;;;;3.25;1.10;;;;;;;16.21;52.09;98418.00;5014682;28;20132;-82
2021/05/21 11:29:44;;;;;;;1.15;1.05;;;;;;;16.12;51.50;98411.19;5015029;28;20069;-81
2021/05/21 11:32:11;;;;;;;4.25;0.68;;;;;;;16.06;52.14;98426.69;5014977;28;20049;-81
2021/05/21 11:34:40;;;;;;;3.60;0.70;;;;;;;15.95;51.49;98424.81;5014480;28;20371;-82
2021/05/21 11:37:09;;;;;;;2.17;0.60;;;;;;;15.90;51.65;98420.03;5014056;28;20103;-82
2021/05/21 11:39:37;;;;;;;1.55;0.85;;;;;;;16.06;52.09;98430.28;5013889;28;20061;-81
2021/05/21 11:42:05;;;;;;;2.33;0.60;;;;;;;16.02;52.36;98440.06;5014522;28;20100;-83
2021/05/21 11:44:32;;;;;;;2.58;0.65;;;;;;;15.91;52.06;98449.94;5026810;28;20049;-82
2021/05/21 11:47:03;;;;;;;2.08;0.70;;;;;;;15.81;50.89;98438.72;5033126;28;20092;-81
2021/05/21 11:52:23;;;;;;;3.83;0.57;;;;;;;16.28;52.19;98441.47;5021517;28;20076;-81
2021/05/21 11:54:49;;;;;;;2.40;0.60;;;;;;;16.44;52.62;98456.38;5023899;28;20073;-81
2021/05/21 11:57:19;;;;;;;0.63;0.43;;;;;;;16.54;52.74;98444.78;5031575;28;20049;-82
2021/05/21 11:59:45;;;;;;;0.90;0.50;;;;;;;16.59;52.29;98442.16;5030784;28;20061;-83
2021/05/21 12:02:17;;;;;;;0.75;0.50;;;;;;;16.76;52.62;98452.38;5031235;28;20048;-83
2021/05/21 12:04:45;;;;;;;2.22;0.50;;;;;;;16.56;51.41;98433.56;5018282;28;20100;-82
2021/05/21 12:07:19;;;;;;;2.28;0.68;;;;;;;16.44;51.63;98428.13;5032816;28;20041;-82
2021/05/21 12:09:55;;;;;;;1.95;0.52;;;;;;;16.39;50.67;98437.03;5026076;28;20050;-83
2021/05/21 12:12:23;;;;;;;2.42;0.45;;;;;;;16.39;49.93;98408.78;5029804;28;20107;-82
2021/05/21 12:14:49;;;;;;;2.35;0.40;;;;;;;16.41;50.33;98410.22;5025977;28;20049;-83
2021/05/21 12:17:16;;;;;;;1.83;0.52;;;;;;;16.60;49.30;98421.03;5020363;28;20497;-81
2021/05/21 12:19:43;;;;;;;2.55;0.50;;;;;;;16.63;49.11;98406.81;5018857;28;20107;-82
2021/05/21 12:22:10;;;;;;;1.08;0.65;;;;;;;16.85;49.66;98415.22;4995792;28;20061;-82
2021/05/21 12:24:40;;;;;;;2.75;0.70;;;;;;;16.74;50.05;98413.34;4996581;28;20493;-83
2021/05/21 12:27:06;;;;;;;1.45;0.77;;;;;;;16.67;49.30;98412.69;5026924;28;20065;-83
2021/05/21 12:29:33;;;;;;;18.42;1.30;;;;;;;16.69;48.81;98416.00;5032535;28;20057;-84
2021/05/21 12:32:02;;;;;;;5.60;0.57;;;;;;;16.41;49.91;98421.19;5025655;28;20049;-82
2021/05/21 12:34:32;;;;;;;2.95;0.57;;;;;;;16.21;49.64;98421.59;5025514;28;20600;-82
2021/05/21 12:36:59;;;;;;;1.20;0.65;;;;;;;16.01;49.25;98410.97;5024379;28;20053;-82
2021/05/21 12:39:37;;;;;;;1.13;0.70;;;;;;;15.88;49.13;98417.53;5013288;28;20054;-82
2021/05/21 12:42:07;;;;;;;0.57;0.30;;;;;;;15.62;48.75;98424.25;5013148;28;20064;-82
2021/05/21 12:44:38;;;;;;;4.30;1.13;;;;;;;15.56;48.48;98422.47;5015935;28;20046;-82
2021/05/21 12:47:05;;;;;;;3.70;0.93;;;;;;;15.61;49.23;98414.38;5029337;28;20305;-82
2021/05/21 12:49:38;;;;;;;1.00;0.43;;;;;;;15.64;48.59;98411.16;5013082;28;20050;-82
2021/05/21 12:52:06;;;;;;;1.92;0.95;;;;;;;15.89;48.83;98413.69;5013214;28;20559;-82
2021/05/21 12:54:34;;;;;;;0.55;0.50;;;;;;;15.97;49.80;98408.94;5031208;28;20148;-81
2021/05/21 12:57:02;;;;;;;0.50;0.50;;;;;;;15.95;49.85;98403.69;5034926;28;20082;-81
2021/05/21 12:59:39;;;;;;;1.55;0.60;;;;;;;15.72;48.87;98385.31;5019266;28;20132;-81
2021/05/21 13:05:18;;;;;;;1.27;0.50;;;;;;;15.78;48.47;98402.72;5022545;28;20049;-82
2021/05/21 13:07:56;;;;;;;0.60;0.50;;;;;;;15.77;49.45;98381.88;5021214;28;20120;-81
2021/05/21 13:10:22;;;;;;;2.92;0.63;;;;;;;15.88;48.27;98402.97;5021511;28;20543;-81
2021/05/21 13:12:50;;;;;;;1.77;0.70;;;;;;;15.73;47.58;98396.03;5034760;28;20053;-81
2021/05/21 13:15:22;;;;;;;3.97;0.60;;;;;;;15.65;48.25;98401.03;5034886;28;20046;-81
2021/05/21 13:17:50;;;;;;;0.80;0.60;;;;;;;15.60;47.99;98407.22;5026989;28;20128;-81
2021/05/21 13:20:21;;;;;;;0.65;0.45;;;;;;;15.53;47.68;98409.22;5018297;28;20504;-81
2021/05/21 13:22:49;;;;;;;0.60;0.60;;;;;;;15.46;48.49;98409.34;5013010;28;20497;-81
2021/05/21 13:25:19;;;;;;;6.70;0.70;;;;;;;15.39;46.87;98389.44;5035379;28;20052;-82